Time;durP1;ratioP1;P1;durP2;ratioP2;P2;SDS_P1;SDS_P2;PMS_P1;PMS_P2;Temp;Humidity;BMP_temperature;BMP_pressure;BME280_temperature;BME280_humidity;BME280_pressure;Samples;Min_cycle;Max_cycle;Signal;HPM_P1;HPM_P2
2021/05/22 00:02:08;;;;;;;4.03;2.53;;;;;;;11.34;63.84;99955.19;6101352;29;20236;-48
2021/05/22 00:05:28;;;;;;;4.27;2.57;;;;;;;11.65;62.91;99944.81;6085106;28;20244;-49
2021/05/22 00:08:48;;;;;;;6.00;2.93;;;;;;;11.82;62.26;99941.72;6085116;29;20265;-47
2021/05/22 00:12:09;;;;;;;9.60;3.53;;;;;;;11.67;63.00;99932.59;6087297;29;20245;-51
2021/05/22 00:15:30;;;;;;;4.23;2.60;;;;;;;12.00;62.09;99935.19;6105794;29;20243;-47
2021/05/22 00:18:50;;;;;;;4.43;3.03;;;;;;;11.34;63.76;99936.94;6109371;29;20634;-47
2021/05/22 00:22:11;;;;;;;4.43;2.43;;;;;;;11.67;62.07;99931.72;6104095;28;20780;-49
2021/05/22 00:25:32;;;;;;;9.40;3.17;;;;;;;11.40;63.24;99928.97;6103584;29;20227;-51
2021/05/22 00:28:53;;;;;;;8.67;3.17;;;;;;;11.50;63.00;99925.22;6102219;28;20243;-50
2021/05/22 00:32:13;;;;;;;4.80;2.30;;;;;;;11.41;62.33;99920.25;6107138;29;20514;-51
2021/05/22 00:35:34;;;;;;;3.03;1.73;;;;;;;11.23;62.51;99922.44;6100970;29;20232;-49
2021/05/22 00:38:54;;;;;;;3.63;1.80;;;;;;;11.08;63.39;99915.00;6099880;29;20224;-48
2021/05/22 00:42:15;;;;;;;4.37;2.03;;;;;;;10.88;63.96;99918.13;6085466;29;22100;-50
2021/05/22 00:45:37;;;;;;;5.03;2.27;;;;;;;10.76;64.23;99921.00;6091323;28;20224;-47
2021/05/22 00:48:58;;;;;;;3.93;2.03;;;;;;;10.83;64.28;99923.44;6121245;28;20227;-51
2021/05/22 00:52:19;;;;;;;3.07;2.57;;;;;;;11.04;63.49;99926.41;6095730;29;20233;-50
2021/05/22 00:55:40;;;;;;;2.30;1.90;;;;;;;10.77;64.14;99918.38;6111429;29;20618;-49
2021/05/22 00:59:00;;;;;;;5.57;1.77;;;;;;;11.01;63.24;99923.88;6104213;29;20548;-49
2021/05/22 01:02:23;;;;;;;3.13;1.90;;;;;;;10.77;63.55;99920.97;6098255;28;20239;-51
2021/05/22 01:05:45;;;;;;;3.33;2.23;;;;;;;10.71;63.72;99923.75;6110958;28;20232;-46
2021/05/22 01:09:10;;;;;;;3.73;2.20;;;;;;;10.65;63.39;99929.09;6094595;28;20232;-48
2021/05/22 01:12:34;;;;;;;4.80;2.20;;;;;;;10.84;62.17;99927.75;6102172;28;20330;-48
2021/05/22 01:15:55;;;;;;;5.33;2.43;;;;;;;10.76;62.12;99926.22;6090832;29;20252;-47
2021/05/22 01:19:26;;;;;;;4.50;2.00;;;;;;;10.78;61.57;99919.25;6088614;29;20233;-49
2021/05/22 01:22:50;;;;;;;3.37;2.40;;;;;;;10.74;62.22;99917.59;6092320;28;20229;-46
2021/05/22 01:26:13;;;;;;;5.70;2.40;;;;;;;10.62;61.81;99914.41;6096999;28;20235;-47
2021/05/22 01:29:33;;;;;;;6.17;2.63;;;;;;;10.55;62.23;99917.19;6103141;29;20224;-50
2021/05/22 01:32:54;;;;;;;12.20;2.05;;;;;;;10.51;62.02;99907.75;6030050;29;1368629;-49
2021/05/22 01:36:15;;;;;;;4.07;2.13;;;;;;;10.88;60.05;99915.53;6099881;29;20634;-50
2021/05/22 01:39:35;;;;;;;5.83;1.87;;;;;;;10.94;58.76;99904.09;6112550;29;20236;-48
2021/05/22 01:42:57;;;;;;;6.27;2.20;;;;;;;11.04;57.71;99903.81;6108561;28;20263;-49
2021/05/22 01:46:18;;;;;;;5.67;1.77;;;;;;;11.09;56.84;99895.91;6123405;29;20240;-48
2021/05/22 01:49:39;;;;;;;2.43;1.57;;;;;;;11.25;55.93;99895.50;6110875;29;20232;-46
2021/05/22 01:53:02;;;;;;;4.57;1.80;;;;;;;11.22;55.71;99892.06;6102209;29;20244;-47
2021/05/22 01:56:24;;;;;;;5.33;2.37;;;;;;;11.27;55.30;99889.34;6105049;29;20228;-50
2021/05/22 01:59:45;;;;;;;3.60;1.50;;;;;;;11.33;55.83;99894.38;6082538;29;20530;-48
2021/05/22 02:03:08;;;;;;;4.97;2.53;;;;;;;11.37;56.48;99896.00;6095721;29;20232;-46
2021/05/22 02:06:31;;;;;;;5.60;2.17;;;;;;;11.35;57.00;99897.81;6092533;28;20236;-47
2021/05/22 02:09:54;;;;;;;4.90;2.17;;;;;;;11.07;57.59;99889.00;6084591;29;20236;-46
2021/05/22 02:13:15;;;;;;;4.23;2.10;;;;;;;10.90;58.40;99898.09;6093943;29;20240;-48
2021/05/22 02:16:44;;;;;;;5.33;1.87;;;;;;;11.27;57.15;99899.75;6106315;28;20462;-49
2021/05/22 02:20:08;;;;;;;3.43;1.97;;;;;;;10.92;58.26;99901.53;6117034;28;20235;-50
2021/05/22 02:23:30;;;;;;;7.53;2.60;;;;;;;10.73;59.30;99903.72;6117137;28;20232;-47
2021/05/22 02:26:52;;;;;;;7.30;2.07;;;;;;;10.93;58.94;99902.38;6100186;29;20247;-49
2021/05/22 02:30:16;;;;;;;5.97;2.37;;;;;;;10.91;59.48;99901.56;6095433;29;20436;-50
2021/05/22 02:33:38;;;;;;;7.53;2.33;;;;;;;10.53;60.64;99901.59;6102193;29;20424;-46
2021/05/22 02:36:59;;;;;;;4.77;1.90;;;;;;;10.51;60.81;99899.94;6104967;29;20237;-52
2021/05/22 02:40:24;;;;;;;7.87;2.37;;;;;;;10.58;60.62;99893.66;6076549;29;20237;-52
2021/05/22 02:43:49;;;;;;;10.10;2.60;;;;;;;10.34;61.84;99898.56;6093031;29;20326;-52
2021/05/22 02:47:10;;;;;;;3.13;2.00;;;;;;;10.44;61.77;99887.03;6095172;29;20236;-48
2021/05/22 02:50:33;;;;;;;5.90;2.57;;;;;;;10.72;60.65;99883.78;6092125;29;20643;-49
2021/05/22 02:53:54;;;;;;;4.67;2.30;;;;;;;10.33;62.34;99890.78;6098520;28;20240;-46
2021/05/22 02:57:17;;;;;;;6.73;2.27;;;;;;;10.28;62.77;99888.25;6081338;29;20237;-45
2021/05/22 03:00:38;;;;;;;4.67;2.10;;;;;;;10.42;62.46;99880.16;6090515;28;20245;-49
2021/05/22 03:04:00;;;;;;;4.47;2.17;;;;;;;10.44;62.57;99873.19;6107014;29;20241;-46
2021/05/22 03:07:22;;;;;;;4.27;2.33;;;;;;;10.28;62.86;99872.66;6084509;29;20228;-48
2021/05/22 03:10:42;;;;;;;4.17;2.23;;;;;;;10.47;62.51;99867.03;6099435;29;20789;-47
2021/05/22 03:14:04;;;;;;;5.30;1.93;;;;;;;10.51;62.66;99863.50;6102442;29;20240;-51
2021/05/22 03:17:24;;;;;;;5.07;2.20;;;;;;;10.63;62.05;99863.19;6107573;29;20225;-46
2021/05/22 03:20:44;;;;;;;5.03;2.03;;;;;;;10.19;63.22;99863.28;6101201;28;20518;-46
2021/05/22 03:24:07;;;;;;;6.23;2.87;;;;;;;10.40;62.84;99864.56;6102090;29;20235;-49
2021/05/22 03:27:28;;;;;;;4.30;1.83;;;;;;;10.12;63.32;99851.34;6094559;28;20232;-45
2021/05/22 03:30:49;;;;;;;6.47;2.43;;;;;;;10.23;63.40;99848.47;6091396;29;20823;-50
2021/05/22 03:34:09;;;;;;;5.07;2.07;;;;;;;10.31;63.04;99851.78;6107064;28;20228;-52
2021/05/22 03:37:30;;;;;;;4.30;2.20;;;;;;;10.51;62.19;99848.72;6096956;29;20235;-48
2021/05/22 03:40:51;;;;;;;6.13;2.00;;;;;;;10.59;61.74;99854.59;6099228;28;20900;-50
2021/05/22 03:44:11;;;;;;;4.17;2.10;;;;;;;10.44;62.58;99860.16;6083894;28;20240;-49
2021/05/22 03:47:33;;;;;;;8.73;3.57;;;;;;;10.60;62.07;99858.91;6092810;29;20582;-48
2021/05/22 03:50:54;;;;;;;6.40;3.00;;;;;;;10.88;61.40;99857.38;6101167;28;20614;-47
2021/05/22 03:54:15;;;;;;;4.60;1.70;;;;;;;10.78;61.50;99857.59;6105207;29;20261;-49
2021/05/22 03:57:36;;;;;;;4.13;1.47;;;;;;;10.46;62.13;99865.34;6104764;29;20243;-49
2021/05/22 04:00:56;;;;;;;3.23;2.10;;;;;;;10.69;61.79;99857.81;6102431;29;20680;-46
2021/05/22 04:04:17;;;;;;;5.17;1.90;;;;;;;10.78;61.70;99849.78;6111306;29;20625;-45
2021/05/22 04:07:37;;;;;;;3.20;1.70;;;;;;;10.69;61.85;99852.63;6092437;29;20236;-51
2021/05/22 04:10:58;;;;;;;1.70;1.43;;;;;;;10.47;62.21;99846.22;6076308;28;20236;-52
2021/05/22 04:14:20;;;;;;;4.87;1.63;;;;;;;10.43;62.50;99850.66;6089546;29;20244;-51
2021/05/22 04:17:40;;;;;;;9.20;2.53;;;;;;;10.88;61.07;99857.38;6085120;29;20236;-45
2021/05/22 04:21:01;;;;;;;2.37;1.70;;;;;;;10.64;61.90;99854.47;6089085;29;20232;-46
2021/05/22 04:24:21;;;;;;;5.70;2.47;;;;;;;10.67;61.53;99849.19;6108921;28;20327;-51
2021/05/22 04:27:42;;;;;;;4.83;2.13;;;;;;;10.77;61.26;99844.59;6102795;29;20236;-50
2021/05/22 04:31:03;;;;;;;3.40;1.60;;;;;;;10.42;62.40;99852.38;6106466;28;20236;-49
2021/05/22 04:34:24;;;;;;;5.33;2.37;;;;;;;10.59;61.97;99853.75;6104951;29;20503;-52
2021/05/22 04:37:45;;;;;;;4.50;2.27;;;;;;;10.83;60.91;99858.31;6113236;29;20228;-51
2021/05/22 04:41:05;;;;;;;5.10;2.40;;;;;;;10.77;61.03;99853.25;6092518;29;20665;-46
2021/05/22 04:44:26;;;;;;;2.50;1.90;;;;;;;10.77;61.18;99850.66;6079747;29;20228;-48
2021/05/22 04:47:47;;;;;;;4.93;1.80;;;;;;;10.51;61.70;99853.94;6097136;29;20501;-50
2021/05/22 04:51:10;;;;;;;4.40;1.97;;;;;;;10.94;60.55;99847.63;6110052;29;20684;-46
2021/05/22 04:54:30;;;;;;;5.97;1.60;;;;;;;10.77;60.66;99844.59;6085898;29;20514;-49
2021/05/22 04:57:51;;;;;;;8.83;2.73;;;;;;;10.95;60.07;99851.09;6094906;29;20338;-46
2021/05/22 05:01:11;;;;;;;3.07;1.40;;;;;;;10.94;59.98;99862.41;6102996;28;20236;-45
2021/05/22 05:04:32;;;;;;;4.07;1.50;;;;;;;10.81;59.84;99851.44;6093308;29;20236;-48
2021/05/22 05:07:53;;;;;;;4.07;1.87;;;;;;;10.91;59.60;99852.06;6106116;29;20514;-51
2021/05/22 05:11:13;;;;;;;4.03;1.77;;;;;;;10.91;59.52;99857.28;6099778;28;20323;-46
2021/05/22 05:14:34;;;;;;;5.13;1.57;;;;;;;11.16;58.98;99847.06;6095976;28;20229;-47
2021/05/22 05:17:54;;;;;;;3.83;1.93;;;;;;;11.42;58.47;99843.75;6096887;28;20252;-48
2021/05/22 05:21:16;;;;;;;3.80;1.50;;;;;;;11.11;58.81;99838.50;6084550;29;20252;-48
2021/05/22 05:24:37;;;;;;;3.00;1.73;;;;;;;11.53;57.72;99846.91;6106121;29;20228;-53
2021/05/22 05:27:57;;;;;;;3.20;1.00;;;;;;;11.54;57.74;99843.41;6100651;28;20244;-47
2021/05/22 05:31:18;;;;;;;4.00;1.70;;;;;;;11.62;57.27;99849.25;6103518;28;20519;-51
2021/05/22 05:34:41;;;;;;;4.70;1.20;;;;;;;12.16;56.18;99842.47;6093185;28;20244;-50
2021/05/22 05:38:02;;;;;;;5.63;1.70;;;;;;;11.90;56.67;99839.78;6105370;29;20235;-47
2021/05/22 05:41:22;;;;;;;7.67;1.50;;;;;;;11.79;56.72;99847.91;6109199;29;20239;-49
2021/05/22 05:44:43;;;;;;;6.23;1.50;;;;;;;11.90;55.83;99855.44;6085502;29;20225;-46
2021/05/22 05:48:04;;;;;;;3.50;1.00;;;;;;;11.95;55.72;99846.56;6083877;29;20228;-49
2021/05/22 05:51:25;;;;;;;1.83;1.03;;;;;;;11.75;56.43;99835.88;6102999;28;21010;-52
2021/05/22 05:54:46;;;;;;;4.23;1.70;;;;;;;11.72;56.72;99839.41;6101936;29;20225;-49
2021/05/22 05:58:07;;;;;;;3.33;1.40;;;;;;;12.11;55.31;99846.13;6096998;28;20233;-48
2021/05/22 06:01:27;;;;;;;6.00;1.73;;;;;;;11.87;55.77;99847.69;6081985;29;20260;-47
2021/05/22 06:04:48;;;;;;;5.73;2.10;;;;;;;12.18;54.70;99837.19;6086796;29;20725;-51
2021/05/22 06:08:08;;;;;;;3.33;1.43;;;;;;;12.15;54.99;99845.97;6083015;29;20245;-51
2021/05/22 06:11:31;;;;;;;3.07;1.10;;;;;;;11.80;55.69;99850.47;6080612;29;20247;-48
2021/05/22 06:14:55;;;;;;;5.63;1.23;;;;;;;12.18;54.62;99829.38;6085702;29;20224;-46
2021/05/22 06:18:15;;;;;;;5.60;2.07;;;;;;;12.16;54.90;99841.63;6107230;28;20506;-47
2021/05/22 06:21:37;;;;;;;3.73;1.40;;;;;;;12.72;53.69;99854.59;6084818;29;20236;-53
2021/05/22 06:24:58;;;;;;;3.93;1.20;;;;;;;12.47;53.87;99838.03;6089902;29;20240;-52
2021/05/22 06:28:20;;;;;;;4.77;1.43;;;;;;;12.54;53.82;99832.56;6095478;29;20232;-47
2021/05/22 06:31:40;;;;;;;2.87;1.47;;;;;;;12.55;54.18;99843.84;6093314;29;20232;-49
2021/05/22 06:35:01;;;;;;;7.20;2.60;;;;;;;12.58;53.91;99843.75;6086826;29;20656;-49
2021/05/22 06:38:21;;;;;;;2.07;0.93;;;;;;;12.30;54.20;99838.56;6108544;28;20240;-49
2021/05/22 06:41:42;;;;;;;2.23;1.47;;;;;;;12.49;54.30;99852.75;6104306;28;20322;-46
2021/05/22 06:45:07;;;;;;;3.50;1.20;;;;;;;12.10;55.17;99841.81;6096195;29;20236;-50
2021/05/22 06:48:28;;;;;;;5.13;1.23;;;;;;;12.19;54.97;99862.38;6087884;29;20236;-46
2021/05/22 06:51:50;;;;;;;7.10;1.47;;;;;;;12.32;54.59;99848.06;6088270;28;20267;-48
2021/05/22 06:55:11;;;;;;;3.40;1.60;;;;;;;12.59;54.46;99856.75;6089003;29;20237;-48
2021/05/22 06:58:32;;;;;;;4.83;1.50;;;;;;;12.58;54.04;99839.38;6085036;29;20236;-50
2021/05/22 07:01:54;;;;;;;1.57;1.20;;;;;;;12.66;53.76;99841.75;6102474;28;20643;-47
2021/05/22 07:05:14;;;;;;;3.23;1.30;;;;;;;12.10;54.87;99847.03;6078567;29;20240;-48
2021/05/22 07:08:35;;;;;;;3.93;1.73;;;;;;;12.80;53.32;99849.13;6102184;28;20264;-51
2021/05/22 07:11:55;;;;;;;3.67;2.00;;;;;;;12.80;53.68;99849.97;6112978;28;20240;-47
2021/05/22 07:15:16;;;;;;;5.37;1.20;;;;;;;13.22;52.87;99847.69;6087170;29;20860;-51
2021/05/22 07:18:37;;;;;;;4.83;1.13;;;;;;;12.78;53.20;99843.94;6086120;29;20236;-53
2021/05/22 07:21:58;;;;;;;3.90;1.30;;;;;;;13.11;52.65;99833.25;6110626;29;20232;-49
2021/05/22 07:25:18;;;;;;;7.20;1.50;;;;;;;13.03;52.64;99843.13;6101275;28;20778;-49
2021/05/22 07:28:39;;;;;;;1.80;1.10;;;;;;;12.80;52.99;99839.53;6096322;29;20240;-48
2021/05/22 07:31:59;;;;;;;2.60;1.10;;;;;;;13.43;52.11;99833.88;6091178;29;20311;-49
2021/05/22 07:35:21;;;;;;;6.20;1.37;;;;;;;13.56;51.51;99823.81;6097151;28;20232;-47
2021/05/22 07:38:41;;;;;;;3.03;1.10;;;;;;;13.18;52.01;99831.25;6095334;28;20229;-51
2021/05/22 07:42:03;;;;;;;6.63;2.10;;;;;;;13.99;50.63;99828.25;6084565;29;20715;-45
2021/05/22 07:45:23;;;;;;;2.87;1.40;;;;;;;13.48;51.79;99826.72;6097890;29;20271;-48
2021/05/22 07:48:44;;;;;;;2.80;1.30;;;;;;;13.91;50.55;99839.94;6106074;29;20228;-49
2021/05/22 07:52:09;;;;;;;2.17;1.17;;;;;;;13.48;51.02;99825.88;6090366;29;20806;-49
2021/05/22 07:55:30;;;;;;;3.43;1.17;;;;;;;13.10;51.92;99836.75;6085239;29;20225;-48
2021/05/22 07:58:51;;;;;;;7.43;2.50;;;;;;;13.27;51.54;99848.38;6107035;28;20240;-48
2021/05/22 08:02:11;;;;;;;2.83;1.03;;;;;;;12.97;52.50;99885.16;6093979;28;20591;-48
2021/05/22 08:05:32;;;;;;;1.10;1.00;;;;;;;13.10;51.90;99839.34;6085309;28;20230;-50
2021/05/22 08:08:53;;;;;;;3.07;0.77;;;;;;;12.95;52.59;99845.13;6083259;29;20331;-51
2021/05/22 08:12:13;;;;;;;2.83;1.43;;;;;;;13.02;52.40;99841.41;6084400;29;20332;-49
2021/05/22 08:15:34;;;;;;;4.03;1.33;;;;;;;13.54;50.79;99841.34;6084893;28;20256;-47
2021/05/22 08:18:55;;;;;;;4.13;1.80;;;;;;;13.43;51.11;99828.63;6104795;28;20512;-50
2021/05/22 08:22:15;;;;;;;3.50;1.17;;;;;;;13.14;52.20;99850.56;6106949;29;20634;-53
2021/05/22 08:25:36;;;;;;;4.87;0.83;;;;;;;13.00;52.62;99851.06;6091519;29;20239;-49
2021/05/22 08:28:57;;;;;;;2.33;1.23;;;;;;;12.74;53.71;99846.72;6101897;28;20461;-51
2021/05/22 08:32:18;;;;;;;7.33;1.73;;;;;;;12.51;54.36;99855.31;6102545;28;20314;-54
2021/05/22 08:35:38;;;;;;;2.07;1.30;;;;;;;12.81;54.18;99845.59;6105448;29;20537;-52
2021/05/22 08:38:59;;;;;;;4.27;1.17;;;;;;;12.86;54.53;99848.06;6094225;29;20240;-50
2021/05/22 08:42:22;;;;;;;3.43;1.37;;;;;;;12.83;54.18;99845.53;6106220;28;20231;-47
2021/05/22 08:45:43;;;;;;;3.40;1.80;;;;;;;12.41;55.94;99862.59;6109134;28;20251;-48
2021/05/22 08:49:06;;;;;;;5.27;1.40;;;;;;;12.72;55.35;99857.22;6086896;29;20237;-47
2021/05/22 08:52:26;;;;;;;3.40;1.37;;;;;;;12.51;56.36;99865.75;6093200;29;20622;-53
2021/05/22 08:55:47;;;;;;;2.27;1.40;;;;;;;12.83;55.56;99863.84;6109813;28;20548;-46
2021/05/22 08:59:08;;;;;;;3.33;1.40;;;;;;;12.63;56.52;99857.50;6106878;28;20235;-51
2021/05/22 09:02:28;;;;;;;4.30;1.80;;;;;;;12.57;57.33;99863.78;6116099;28;20239;-52
2021/05/22 09:05:49;;;;;;;6.50;2.43;;;;;;;12.92;56.13;99868.75;6114480;28;20228;-52
2021/05/22 09:09:10;;;;;;;4.33;1.40;;;;;;;12.63;57.59;99867.13;6108688;28;20244;-49
2021/05/22 09:12:33;;;;;;;3.40;1.20;;;;;;;12.33;59.70;99880.22;6100663;29;20243;-45
2021/05/22 09:16:00;;;;;;;4.80;1.67;;;;;;;12.46;60.41;99870.25;6120415;28;20231;-52
2021/05/22 09:19:28;;;;;;;3.80;1.30;;;;;;;11.90;61.95;99898.03;6118514;29;20220;-48
2021/05/22 09:22:56;;;;;;;6.40;2.80;;;;;;;11.58;64.02;99880.69;6118726;28;20913;-51
2021/05/22 09:26:17;;;;;;;3.23;2.13;;;;;;;11.60;65.06;99890.16;6106620;28;20250;-52
2021/05/22 09:29:43;;;;;;;3.37;1.73;;;;;;;11.81;64.55;99895.69;6098193;29;20237;-47
2021/05/22 09:33:12;;;;;;;3.33;2.07;;;;;;;12.11;63.45;99880.03;6094886;28;20232;-50
2021/05/22 09:36:44;;;;;;;2.53;1.20;;;;;;;12.04;65.12;99891.56;6107622;29;20228;-48
2021/05/22 09:40:06;;;;;;;2.97;1.57;;;;;;;11.94;64.92;99888.38;6120806;29;20231;-50
2021/05/22 09:43:26;;;;;;;5.23;1.37;;;;;;;11.91;64.14;99881.50;6112353;28;20331;-47
2021/05/22 09:47:00;;;;;;;2.50;1.40;;;;;;;11.99;64.72;99883.88;6118448;29;20228;-51
2021/05/22 09:50:31;;;;;;;2.00;1.90;;;;;;;12.07;63.48;99881.88;6110989;29;20689;-51
2021/05/22 09:53:52;;;;;;;3.57;1.50;;;;;;;11.93;64.18;99887.50;6114382;29;20285;-50
2021/05/22 09:57:16;;;;;;;1.30;1.10;;;;;;;12.30;63.80;99889.00;6124056;28;20319;-49
2021/05/22 10:00:36;;;;;;;2.77;1.63;;;;;;;12.48;62.52;99884.13;6122216;28;20613;-52
2021/05/22 10:04:15;;;;;;;5.63;2.37;;;;;;;12.08;64.42;99891.44;6115574;29;20347;-48
2021/05/22 10:07:37;;;;;;;2.77;1.70;;;;;;;12.38;63.77;99879.19;6109650;29;20239;-52
2021/05/22 10:10:58;;;;;;;3.90;1.40;;;;;;;12.47;62.60;99878.06;6115134;28;20630;-52
2021/05/22 10:14:18;;;;;;;4.70;1.60;;;;;;;12.31;63.66;99888.13;6115095;28;20235;-50
2021/05/22 10:17:39;;;;;;;4.40;1.50;;;;;;;12.48;63.26;99900.63;6113456;28;20240;-49
2021/05/22 10:21:03;;;;;;;1.30;1.20;;;;;;;11.80;65.07;99880.91;6118905;28;20872;-50
2021/05/22 10:24:27;;;;;;;3.37;1.47;;;;;;;12.17;64.14;99885.94;6117581;29;20330;-50
2021/05/22 10:27:48;;;;;;;3.63;1.30;;;;;;;11.85;64.19;99884.25;6117295;28;20239;-50
2021/05/22 10:31:08;;;;;;;3.83;1.50;;;;;;;11.89;64.84;99888.50;6111392;28;20247;-49
2021/05/22 10:34:35;;;;;;;1.40;1.17;;;;;;;12.11;64.31;99878.28;6081718;29;20720;-51
2021/05/22 10:37:57;;;;;;;3.80;1.40;;;;;;;11.98;64.40;99879.53;6072686;29;20297;-49
2021/05/22 10:41:37;;;;;;;6.33;1.80;;;;;;;12.02;64.71;99887.25;6087379;29;20623;-49
2021/05/22 10:44:58;;;;;;;1.60;1.37;;;;;;;11.58;65.96;99899.78;6076943;29;20236;-52
2021/05/22 10:48:48;;;;;;;6.73;2.40;;;;;;;11.78;66.65;99893.16;6094540;29;20256;-49
2021/05/22 10:52:20;;;;;;;2.30;1.80;;;;;;;11.82;66.33;99916.50;6125430;28;20232;-47
2021/05/22 10:55:40;;;;;;;5.80;2.03;;;;;;;12.06;66.60;99898.47;6124558;28;20296;-52
2021/05/22 10:59:13;;;;;;;3.30;1.30;;;;;;;11.66;67.72;99910.00;6396037;23;20232;-52
2021/05/22 11:02:34;;;;;;;3.00;1.50;;;;;;;11.53;67.61;99896.44;6112470;28;20522;-48
2021/05/22 11:05:55;;;;;;;2.23;1.93;;;;;;;12.00;66.97;99915.16;6114816;29;20609;-51
2021/05/22 11:09:51;;;;;;;3.40;1.60;;;;;;;11.96;66.84;99908.31;6112305;28;20288;-49
2021/05/22 11:13:32;;;;;;;2.67;1.77;;;;;;;11.76;67.22;99910.59;6113669;29;20231;-51
2021/05/22 11:16:53;;;;;;;1.70;1.60;;;;;;;11.94;66.57;99906.63;6106291;28;20236;-47
2021/05/22 11:20:16;;;;;;;1.70;1.50;;;;;;;11.62;67.25;99909.22;6114459;28;20350;-50
2021/05/22 11:24:16;;;;;;;5.80;1.87;;;;;;;11.57;67.98;99921.56;6109111;29;20251;-50
2021/05/22 11:27:59;;;;;;;5.80;2.03;;;;;;;11.74;67.91;99917.59;6109798;29;20231;-51
2021/05/22 11:31:32;;;;;;;2.77;1.77;;;;;;;11.92;67.63;99914.53;6088321;29;20467;-51
2021/05/22 11:34:53;;;;;;;3.57;1.97;;;;;;;11.54;66.92;99918.16;6103033;28;20410;-51
2021/05/22 11:38:38;;;;;;;2.17;1.83;;;;;;;11.77;66.67;99933.19;6090062;29;20436;-50
2021/05/22 11:41:59;;;;;;;3.90;1.20;;;;;;;11.95;66.83;99916.19;6105668;29;20411;-47
2021/05/22 11:45:19;;;;;;;2.70;1.57;;;;;;;11.85;66.77;99935.59;6115302;28;20240;-49
2021/05/22 11:48:43;;;;;;;6.30;1.87;;;;;;;11.59;67.65;99958.00;6108269;29;20354;-50
2021/05/22 11:52:05;;;;;;;7.97;1.73;;;;;;;11.70;67.17;99931.63;6118389;28;20311;-48
2021/05/22 11:55:25;;;;;;;5.20;3.57;;;;;;;11.72;68.15;99937.66;6115881;28;20645;-50
2021/05/22 11:58:48;;;;;;;5.90;2.50;;;;;;;11.66;68.40;99943.91;6121182;28;20243;-48
2021/05/22 12:02:08;;;;;;;3.50;2.10;;;;;;;11.70;68.96;99942.91;6109062;29;20236;-52
2021/05/22 12:05:37;;;;;;;4.27;2.00;;;;;;;12.07;66.96;99935.84;6117006;28;20236;-51
2021/05/22 12:09:11;;;;;;;3.30;2.07;;;;;;;11.86;67.20;99932.91;6101760;29;20326;-48
2021/05/22 12:12:31;;;;;;;2.53;1.60;;;;;;;11.95;67.32;99942.28;6093772;29;20322;-52
2021/05/22 12:15:53;;;;;;;3.47;1.63;;;;;;;12.38;65.90;99944.47;6119697;29;20268;-50
2021/05/22 12:19:16;;;;;;;2.90;2.00;;;;;;;12.23;66.13;99954.50;6113352;28;20246;-53
2021/05/22 12:22:36;;;;;;;2.00;1.80;;;;;;;12.00;66.52;99933.41;6100230;29;20235;-50
2021/05/22 12:26:00;;;;;;;1.90;1.70;;;;;;;11.97;66.32;99935.25;6110206;29;20237;-49
2021/05/22 12:29:22;;;;;;;2.47;2.10;;;;;;;12.45;65.12;99944.28;6111812;29;20259;-49
2021/05/22 12:32:43;;;;;;;2.57;1.97;;;;;;;12.33;65.93;99945.50;6106908;29;20256;-52
2021/05/22 12:36:06;;;;;;;3.33;1.87;;;;;;;12.67;64.62;99952.31;6114707;28;20240;-49
2021/05/22 12:39:31;;;;;;;4.07;2.87;;;;;;;12.73;64.59;99952.97;6114791;28;20236;-49
2021/05/22 12:42:53;;;;;;;2.47;1.90;;;;;;;12.33;65.56;99969.00;6115180;28;20244;-54
2021/05/22 12:46:25;;;;;;;2.17;1.97;;;;;;;12.34;66.07;99950.66;6118845;28;20231;-48
2021/05/22 12:49:56;;;;;;;2.63;1.23;;;;;;;11.87;67.45;99968.53;6116197;29;20235;-52
2021/05/22 12:53:28;;;;;;;2.17;1.70;;;;;;;11.91;67.38;99969.34;6120799;28;20239;-47
2021/05/22 12:57:00;;;;;;;3.03;1.90;;;;;;;12.35;66.44;99960.22;6129743;28;20789;-50
2021/05/22 13:00:23;;;;;;;2.37;1.97;;;;;;;12.45;66.04;99967.78;6132502;28;20239;-46
2021/05/22 13:03:47;;;;;;;2.20;2.00;;;;;;;12.70;65.06;99968.75;6115201;29;20326;-52
2021/05/22 13:07:07;;;;;;;3.83;2.07;;;;;;;12.69;65.54;99977.47;6121865;29;20244;-49
2021/05/22 13:10:29;;;;;;;2.57;1.73;;;;;;;12.39;66.12;99972.28;6114364;28;20270;-49
2021/05/22 13:14:02;;;;;;;3.60;2.53;;;;;;;12.43;66.69;99977.41;6104296;29;20271;-49
2021/05/22 13:17:23;;;;;;;1.77;1.67;;;;;;;12.85;65.31;99985.66;6090110;29;20922;-49
2021/05/22 13:20:51;;;;;;;2.17;1.97;;;;;;;12.29;67.53;99989.13;6094512;29;20552;-52
2021/05/22 13:24:12;;;;;;;2.27;2.07;;;;;;;12.49;67.61;99979.84;6091787;29;20264;-51
2021/05/22 13:27:33;;;;;;;2.73;2.10;;;;;;;12.46;68.34;99986.00;6070791;29;20260;-51
2021/05/22 13:31:09;;;;;;;3.37;2.27;;;;;;;12.97;66.73;99997.53;6089157;29;20252;-52
2021/05/22 13:34:30;;;;;;;2.03;1.93;;;;;;;12.39;69.00;99985.34;6095926;29;20240;-48
2021/05/22 13:37:52;;;;;;;2.17;1.60;;;;;;;12.08;70.29;100002.78;6072507;29;20249;-49
2021/05/22 13:41:13;;;;;;;2.30;2.20;;;;;;;12.35;69.35;99996.78;6085835;29;20790;-48
2021/05/22 13:44:33;;;;;;;2.60;2.00;;;;;;;12.01;71.71;100009.94;6096577;29;20228;-52
2021/05/22 13:47:54;;;;;;;4.13;2.50;;;;;;;12.17;70.61;100008.63;6092295;29;20229;-48
2021/05/22 13:51:15;;;;;;;3.00;2.27;;;;;;;12.24;70.60;100001.47;6097075;29;20232;-52
2021/05/22 13:54:36;;;;;;;3.53;2.43;;;;;;;12.50;69.74;100002.44;6087522;29;20237;-50
2021/05/22 13:57:56;;;;;;;3.70;2.43;;;;;;;12.30;69.95;100009.09;6110042;29;20749;-50
2021/05/22 14:01:16;;;;;;;4.17;2.30;;;;;;;12.48;69.39;100006.84;6092907;29;20239;-48
2021/05/22 14:04:37;;;;;;;3.03;2.27;;;;;;;12.35;69.50;100006.38;6096643;29;20260;-51
2021/05/22 14:07:58;;;;;;;2.27;2.17;;;;;;;12.60;68.22;100006.47;6093339;29;20233;-49
2021/05/22 14:11:19;;;;;;;3.23;2.90;;;;;;;12.21;69.08;100001.53;6096582;29;20806;-52
2021/05/22 14:14:39;;;;;;;2.33;2.13;;;;;;;12.84;66.43;100006.66;6093165;29;20271;-49
2021/05/22 14:18:02;;;;;;;2.90;2.60;;;;;;;12.29;68.35;100004.81;6095184;29;20280;-49
2021/05/22 14:21:22;;;;;;;3.47;2.57;;;;;;;12.38;68.20;100017.56;6094324;29;20236;-51
2021/05/22 14:24:45;;;;;;;2.63;2.43;;;;;;;12.52;68.25;100004.13;6093818;29;20244;-48
2021/05/22 14:28:05;;;;;;;2.40;2.20;;;;;;;12.38;68.55;100014.09;6087242;29;20237;-51
2021/05/22 14:31:26;;;;;;;2.57;2.37;;;;;;;12.72;67.38;100019.19;6093805;29;20526;-49
2021/05/22 14:34:46;;;;;;;3.43;2.07;;;;;;;12.71;67.76;100012.22;6086918;29;20638;-50
2021/05/22 14:38:07;;;;;;;2.20;2.10;;;;;;;12.72;67.27;100024.41;6097240;29;20232;-50
2021/05/22 14:41:28;;;;;;;2.67;1.80;;;;;;;12.77;66.96;100021.66;6095392;29;20236;-48
2021/05/22 14:44:48;;;;;;;2.00;1.80;;;;;;;12.55;68.11;100014.47;6094910;29;20244;-49
2021/05/22 14:48:09;;;;;;;2.30;2.20;;;;;;;12.71;67.74;100027.91;6093902;29;20261;-47
2021/05/22 14:51:29;;;;;;;2.90;2.43;;;;;;;12.61;68.59;100021.25;6093017;29;20268;-46
2021/05/22 14:54:50;;;;;;;1.90;1.80;;;;;;;12.92;67.46;100017.72;6077108;29;20228;-50
2021/05/22 14:58:11;;;;;;;2.13;2.03;;;;;;;12.52;68.84;100027.63;6112693;29;20244;-48
2021/05/22 15:01:31;;;;;;;2.13;2.00;;;;;;;12.85;67.50;100034.47;6088721;29;20240;-51
2021/05/22 15:04:52;;;;;;;3.30;2.20;;;;;;;12.76;67.96;100030.41;6091103;29;20331;-50
2021/05/22 15:08:13;;;;;;;2.50;2.30;;;;;;;12.53;68.10;100024.09;6093284;29;20711;-50
2021/05/22 15:11:33;;;;;;;1.73;1.63;;;;;;;13.08;66.66;100028.53;6090678;29;20224;-50
2021/05/22 15:14:55;;;;;;;2.00;1.80;;;;;;;12.82;67.78;100042.41;6092771;29;20240;-51
2021/05/22 15:18:15;;;;;;;2.40;2.20;;;;;;;13.24;66.01;100028.88;6094799;29;20244;-48
2021/05/22 15:21:38;;;;;;;3.23;2.10;;;;;;;13.19;65.82;100029.88;6065034;29;20320;-50
2021/05/22 15:24:59;;;;;;;3.10;1.40;;;;;;;12.94;66.68;100023.75;6083575;29;20240;-48
2021/05/22 15:28:19;;;;;;;2.07;1.80;;;;;;;12.85;66.39;100044.94;6080899;29;20510;-49
2021/05/22 15:31:41;;;;;;;1.70;1.60;;;;;;;13.08;66.10;100028.53;6089192;29;20630;-51
2021/05/22 15:35:02;;;;;;;2.07;1.97;;;;;;;13.35;65.63;100019.81;6081670;29;20237;-51
2021/05/22 15:38:23;;;;;;;2.43;1.70;;;;;;;12.95;66.41;100026.31;6080493;29;20532;-46
2021/05/22 15:41:43;;;;;;;2.00;1.70;;;;;;;12.87;66.26;100030.94;6090713;29;20233;-46
2021/05/22 15:45:05;;;;;;;3.33;2.07;;;;;;;13.05;66.20;100032.09;6093561;29;20232;-52
2021/05/22 15:48:54;;;;;;;2.10;1.70;;;;;;;13.13;66.00;100030.09;6062948;29;20343;-50
2021/05/22 15:59:32;;;;;;;1.47;1.30;;;;;;;13.22;65.66;100023.69;6101377;29;20233;-52